Terminal Aerodrome Forecast
Issued by NWS

Home | Current Version | Previous Version | Text Only | Print | Product List | Glossary On
Versions: 1 2 3 4 5 6 7 8 9 10 11 12 13 14 15 16 17 18 19
928
FTUS41 KPBZ 261741 AAD
TAFZZV
TAF AMD
KZZV 261741Z 2618/2718 32011KT 1SM -SHRA OVC035
     FM261830 28012G20KT P6SM VCSH OVC025
     FM262300 26009KT P6SM SCT020=

USA.gov is the U.S. government's official web portal to all federal, state and local government web resources and services.